createdAt,value
2023-03-31T00:00:01.941Z,70.29
2023-03-31T00:02:37.449Z,70.06
2023-03-31T00:05:10.822Z,69.52
2023-03-31T00:07:44.025Z,70.22
2023-03-31T00:10:19.338Z,70.49
2023-03-31T00:12:53.677Z,69.77
2023-03-31T00:15:27.207Z,70.31
2023-03-31T00:18:00.686Z,69.76
2023-03-31T00:20:38.012Z,69.90
2023-03-31T00:23:14.624Z,70.23
2023-03-31T00:25:48.174Z,69.99
2023-03-31T00:28:22.614Z,70.08
2023-03-31T00:31:00.977Z,70.37
2023-03-31T00:33:34.141Z,70.98
2023-03-31T00:36:08.003Z,70.23
2023-03-31T00:38:45.795Z,70.56
2023-03-31T00:41:19.067Z,70.18
2023-03-31T00:44:08.446Z,70.78
2023-03-31T00:46:44.908Z,70.89
2023-03-31T00:49:23.652Z,71.37
2023-03-31T00:52:02.220Z,71.47
2023-03-31T00:54:37.435Z,71.94
2023-03-31T00:57:11.154Z,71.95
2023-03-31T00:59:49.484Z,72.17
2023-03-31T01:02:25.630Z,71.93
2023-03-31T01:05:02.619Z,72.17
2023-03-31T01:07:40.891Z,73.03
2023-03-31T01:10:14.502Z,72.75
2023-03-31T01:12:51.335Z,72.75
2023-03-31T01:15:25.513Z,72.03
2023-03-31T01:17:58.377Z,72.76
2023-03-31T01:20:40.008Z,72.41
2023-03-31T01:23:53.760Z,72.01
2023-03-31T01:26:47.152Z,73.33
2023-03-31T01:29:28.179Z,73.54
2023-03-31T01:32:27.006Z,72.69
2023-03-31T01:35:22.345Z,72.53
2023-03-31T01:38:20.162Z,72.94
2023-03-31T01:41:13.320Z,72.92
2023-03-31T01:43:53.428Z,72.36
2023-03-31T01:46:31.792Z,72.71
2023-03-31T01:49:22.233Z,72.41
2023-03-31T01:52:04.269Z,72.66
2023-03-31T01:54:43.219Z,72.73
2023-03-31T01:57:22.235Z,72.67
2023-03-31T02:00:03.462Z,72.41
2023-03-31T02:02:51.564Z,72.28
2023-03-31T02:05:27.399Z,72.42
2023-03-31T02:08:06.210Z,72.63
2023-03-31T02:10:41.887Z,72.81
2023-03-31T02:13:18.267Z,73.01
2023-03-31T02:15:57.905Z,71.99
2023-03-31T02:18:38.372Z,72.49
2023-03-31T02:21:14.636Z,71.80
2023-03-31T02:23:52.212Z,72.44
2023-03-31T02:26:29.652Z,72.62
2023-03-31T02:29:04.438Z,72.66
2023-03-31T02:31:47.675Z,71.99
2023-03-31T02:34:20.956Z,72.45
2023-03-31T02:36:54.169Z,72.79
2023-03-31T02:39:29.117Z,71.91
2023-03-31T02:42:07.163Z,71.96
2023-03-31T02:44:41.468Z,71.76
2023-03-31T02:47:16.757Z,72.23
2023-03-31T02:49:53.794Z,72.36
2023-03-31T02:52:46.323Z,72.19
2023-03-31T02:55:37.544Z,72.03
2023-03-31T02:58:43.397Z,72.11
2023-03-31T03:01:33.088Z,71.95
2023-03-31T03:04:20.114Z,72.49
2023-03-31T03:07:02.075Z,72.83
2023-03-31T03:09:44.764Z,72.42
2023-03-31T03:12:23.758Z,71.36
2023-03-31T03:15:03.404Z,71.55
2023-03-31T03:17:40.418Z,71.38
2023-03-31T03:20:16.278Z,71.97
2023-03-31T03:22:49.106Z,71.72
2023-03-31T03:25:22.016Z,72.16
2023-03-31T03:27:54.572Z,72.17
2023-03-31T03:30:27.584Z,72.10
2023-03-31T03:33:01.878Z,72.22
2023-03-31T03:35:35.460Z,71.82
2023-03-31T03:38:08.105Z,71.25
2023-03-31T03:40:40.760Z,71.65
2023-03-31T03:43:13.558Z,72.08
2023-03-31T03:45:48.953Z,71.45
2023-03-31T03:48:23.192Z,71.40
2023-03-31T03:50:57.347Z,71.34
2023-03-31T03:53:30.375Z,71.39
2023-03-31T03:56:03.029Z,71.87
2023-03-31T03:58:36.023Z,71.73
2023-03-31T04:01:08.997Z,71.50
2023-03-31T04:03:43.110Z,71.52
2023-03-31T04:06:15.796Z,71.31
2023-03-31T04:08:48.724Z,71.52
2023-03-31T04:11:21.635Z,71.55
2023-03-31T04:13:54.184Z,72.21
2023-03-31T04:16:27.000Z,72.35
2023-03-31T04:19:03.788Z,72.45
2023-03-31T04:21:36.550Z,71.68
2023-03-31T04:24:11.578Z,72.02
2023-03-31T04:26:44.303Z,71.92
2023-03-31T04:29:22.758Z,72.31
2023-03-31T04:31:59.175Z,72.19
2023-03-31T04:34:35.976Z,71.88
2023-03-31T04:37:10.742Z,72.18
2023-03-31T04:39:46.770Z,71.89
2023-03-31T04:42:19.467Z,71.63
2023-03-31T04:44:52.159Z,71.63
2023-03-31T04:47:25.036Z,72.02
2023-03-31T04:49:59.001Z,71.93
2023-03-31T04:52:31.744Z,72.84
2023-03-31T04:55:05.141Z,72.45
2023-03-31T04:57:38.191Z,72.48
2023-03-31T05:00:12.334Z,72.60
2023-03-31T05:02:45.106Z,72.26
2023-03-31T05:05:19.325Z,72.31
2023-03-31T05:07:52.061Z,72.42
2023-03-31T05:10:25.132Z,72.75
2023-03-31T05:12:58.234Z,73.09
2023-03-31T05:15:31.270Z,73.76
2023-03-31T05:18:04.987Z,73.24
2023-03-31T05:20:39.181Z,72.90
2023-03-31T05:23:11.884Z,72.62
2023-03-31T05:25:44.865Z,72.96
2023-03-31T05:28:17.468Z,73.06
2023-03-31T05:30:53.258Z,72.68
2023-03-31T05:33:25.953Z,72.70
2023-03-31T05:36:01.159Z,72.70
2023-03-31T05:38:34.674Z,72.97
2023-03-31T05:41:09.252Z,72.58
2023-03-31T05:43:43.249Z,72.20
2023-03-31T05:46:16.091Z,72.28
2023-03-31T05:48:49.097Z,72.78
2023-03-31T05:51:23.092Z,72.93
2023-03-31T05:53:56.159Z,72.42
2023-03-31T05:56:29.351Z,72.61
2023-03-31T05:59:03.259Z,72.43
2023-03-31T06:01:38.057Z,72.23
2023-03-31T06:04:10.793Z,72.12
2023-03-31T06:06:50.220Z,72.22
2023-03-31T06:09:23.360Z,72.77
2023-03-31T06:11:56.127Z,72.96
2023-03-31T06:14:29.381Z,72.91
2023-03-31T06:17:02.138Z,73.31
2023-03-31T06:19:34.882Z,73.23
2023-03-31T06:22:08.944Z,73.11
2023-03-31T06:24:42.015Z,73.04
2023-03-31T06:27:14.670Z,73.12
2023-03-31T06:29:47.540Z,73.28
2023-03-31T06:32:20.536Z,73.19
2023-03-31T06:34:53.401Z,73.03
2023-03-31T06:37:27.719Z,72.80
2023-03-31T06:40:00.582Z,73.07
2023-03-31T06:42:33.314Z,73.29
2023-03-31T06:45:06.658Z,72.69
2023-03-31T06:47:41.523Z,73.41
2023-03-31T06:50:14.420Z,73.27
2023-03-31T06:52:48.619Z,73.20
2023-03-31T06:55:21.354Z,73.98
2023-03-31T06:57:54.090Z,73.12
2023-03-31T07:00:27.194Z,73.61
2023-03-31T07:03:01.662Z,73.30
2023-03-31T07:05:35.204Z,73.42
2023-03-31T07:08:09.424Z,73.03
2023-03-31T07:10:42.184Z,73.16
2023-03-31T07:13:19.476Z,72.91
2023-03-31T07:15:52.796Z,73.00
2023-03-31T07:18:35.107Z,73.80
2023-03-31T07:21:10.049Z,73.61
2023-03-31T07:23:44.637Z,73.07
2023-03-31T07:26:17.506Z,73.07
2023-03-31T07:28:50.399Z,72.93
2023-03-31T07:31:23.950Z,73.27
2023-03-31T07:33:56.730Z,72.88
2023-03-31T07:36:29.659Z,72.89
2023-03-31T07:39:06.098Z,73.17
2023-03-31T07:41:38.878Z,73.12
2023-03-31T07:44:11.978Z,73.08
2023-03-31T07:46:44.754Z,73.15
2023-03-31T07:49:17.517Z,72.49
2023-03-31T07:51:50.275Z,72.44
2023-03-31T07:54:24.510Z,72.40
2023-03-31T07:56:57.611Z,73.37
2023-03-31T07:59:31.139Z,72.68
2023-03-31T08:02:04.068Z,72.58
2023-03-31T08:04:37.082Z,72.58
2023-03-31T08:07:09.852Z,72.92
2023-03-31T08:09:45.669Z,72.62
2023-03-31T08:12:18.451Z,72.67
2023-03-31T08:14:51.330Z,72.71
2023-03-31T08:17:24.078Z,72.84
2023-03-31T08:19:57.613Z,73.26
2023-03-31T08:22:31.846Z,73.24
2023-03-31T08:25:08.077Z,73.02
2023-03-31T08:27:41.877Z,73.76
2023-03-31T08:30:15.270Z,73.77
2023-03-31T08:32:48.204Z,73.73
2023-03-31T08:35:21.096Z,73.83
2023-03-31T08:37:54.166Z,73.80
2023-03-31T08:40:30.801Z,73.78
2023-03-31T08:43:09.475Z,73.65
2023-03-31T08:45:46.501Z,73.90
2023-03-31T08:48:25.833Z,73.29
2023-03-31T08:51:05.247Z,73.25
2023-03-31T08:53:43.396Z,73.41
2023-03-31T08:56:20.152Z,72.91
2023-03-31T08:58:55.774Z,73.24
2023-03-31T09:01:52.315Z,73.18
2023-03-31T09:04:56.205Z,71.79
2023-03-31T09:07:39.212Z,72.35
2023-03-31T09:10:42.715Z,72.20
2023-03-31T09:13:39.994Z,71.89
2023-03-31T09:16:16.711Z,72.30
2023-03-31T09:18:49.747Z,72.31
2023-03-31T09:21:27.505Z,71.91
2023-03-31T09:24:06.130Z,72.49
2023-03-31T09:26:42.682Z,71.57
2023-03-31T09:29:22.010Z,72.06
2023-03-31T09:31:56.464Z,71.95
2023-03-31T09:34:33.118Z,72.32
2023-03-31T09:37:06.033Z,73.02
2023-03-31T09:39:38.870Z,72.44
2023-03-31T09:42:14.239Z,72.92
2023-03-31T09:44:50.690Z,72.51
2023-03-31T09:47:33.015Z,72.88
2023-03-31T09:50:07.303Z,73.01
2023-03-31T09:52:45.110Z,72.58
2023-03-31T09:55:32.489Z,72.95
2023-03-31T09:58:14.509Z,72.46
2023-03-31T10:01:00.599Z,72.64
2023-03-31T10:03:36.839Z,72.57
2023-03-31T10:06:11.045Z,72.67
2023-03-31T10:08:48.756Z,72.98
2023-03-31T10:11:24.430Z,73.30
2023-03-31T10:14:03.750Z,72.75
2023-03-31T10:16:47.420Z,72.14
2023-03-31T10:19:23.477Z,71.56
2023-03-31T10:22:00.804Z,72.03
2023-03-31T10:24:41.382Z,72.10
2023-03-31T10:27:22.915Z,72.01
2023-03-31T10:29:57.528Z,71.95
2023-03-31T10:32:36.361Z,71.89
2023-03-31T10:35:22.536Z,71.55
2023-03-31T10:37:58.802Z,71.64
2023-03-31T10:40:34.182Z,71.67
2023-03-31T10:43:16.504Z,72.13
2023-03-31T10:45:51.613Z,72.04
2023-03-31T10:48:30.794Z,71.50
2023-03-31T10:51:07.432Z,72.38
2023-03-31T10:53:44.552Z,71.48
2023-03-31T10:56:36.181Z,71.63
2023-03-31T10:59:32.380Z,71.15
2023-03-31T11:02:24.045Z,71.29
2023-03-31T11:05:05.687Z,71.58
2023-03-31T11:07:54.485Z,71.16
2023-03-31T11:10:45.286Z,72.07
2023-03-31T11:13:26.663Z,71.30
2023-03-31T11:16:12.118Z,72.05
2023-03-31T11:18:59.563Z,71.40
2023-03-31T11:21:48.236Z,71.26
2023-03-31T11:24:32.893Z,71.82
2023-03-31T11:27:25.402Z,71.26
2023-03-31T11:30:05.213Z,71.01
2023-03-31T11:32:58.747Z,71.32
2023-03-31T11:35:46.711Z,70.80
2023-03-31T11:38:42.549Z,71.15
2023-03-31T11:41:22.822Z,71.82
2023-03-31T11:44:00.482Z,71.29
2023-03-31T11:46:41.154Z,71.78
2023-03-31T11:49:21.330Z,71.07
2023-03-31T11:51:57.905Z,70.91
2023-03-31T11:54:38.445Z,71.24
2023-03-31T11:57:18.249Z,70.67
2023-03-31T11:59:56.898Z,70.99
2023-03-31T12:02:41.509Z,71.00
2023-03-31T12:05:19.213Z,71.23
2023-03-31T12:07:58.817Z,71.81
2023-03-31T12:10:36.600Z,71.25
2023-03-31T12:13:25.414Z,71.38
2023-03-31T12:16:06.121Z,71.12
2023-03-31T12:18:44.110Z,71.77
2023-03-31T12:21:18.376Z,71.75
2023-03-31T12:23:51.656Z,71.82
2023-03-31T12:26:41.539Z,72.21
2023-03-31T12:29:24.434Z,72.46
2023-03-31T12:32:00.152Z,72.08
2023-03-31T12:34:34.634Z,72.40
2023-03-31T12:37:24.136Z,72.07
2023-03-31T12:40:09.750Z,72.35
2023-03-31T12:43:12.961Z,72.42
2023-03-31T12:45:53.206Z,72.35
2023-03-31T12:48:51.458Z,71.49
2023-03-31T12:51:43.776Z,72.52
2023-03-31T12:54:34.886Z,72.22
2023-03-31T12:57:19.584Z,72.10
2023-03-31T13:00:20.946Z,71.67
2023-03-31T13:03:26.366Z,71.15
2023-03-31T13:05:59.175Z,70.88
2023-03-31T13:08:50.899Z,70.75
2023-03-31T13:11:37.474Z,71.69
2023-03-31T13:14:18.367Z,71.00
2023-03-31T13:16:55.620Z,71.11
2023-03-31T13:19:32.730Z,71.02
2023-03-31T13:22:06.851Z,71.12
2023-03-31T13:24:39.596Z,71.04
2023-03-31T13:27:31.499Z,71.44
2023-03-31T13:30:06.234Z,70.79
2023-03-31T13:32:42.244Z,72.00
2023-03-31T13:35:21.541Z,71.65
2023-03-31T13:38:10.737Z,70.89
2023-03-31T13:40:57.841Z,72.12
2023-03-31T13:43:44.698Z,71.06
2023-03-31T13:49:42.264Z,71.35
2023-03-31T13:52:15.428Z,71.17
2023-03-31T13:55:23.592Z,71.47
2023-03-31T13:58:34.407Z,71.24
2023-03-31T14:01:39.441Z,71.58
2023-03-31T14:04:28.137Z,71.77
2023-03-31T14:07:08.611Z,71.26
2023-03-31T14:09:49.696Z,71.38
2023-03-31T14:12:30.839Z,70.89
2023-03-31T14:15:04.915Z,72.18
2023-03-31T14:17:40.299Z,71.56
2023-03-31T14:20:31.191Z,71.25
2023-03-31T14:23:15.959Z,71.27
2023-03-31T14:25:54.727Z,70.76
2023-03-31T14:28:46.895Z,70.80
2023-03-31T14:31:25.724Z,71.86
2023-03-31T14:34:28.183Z,71.67
2023-03-31T14:37:05.746Z,71.47
2023-03-31T14:39:42.515Z,71.11
2023-03-31T14:42:18.448Z,71.55
2023-03-31T14:44:57.202Z,71.62
2023-03-31T14:47:31.145Z,71.29
2023-03-31T14:50:10.012Z,71.12
2023-03-31T14:52:47.896Z,70.93
2023-03-31T14:55:26.505Z,71.63
2023-03-31T14:58:02.947Z,71.22
2023-03-31T15:00:39.309Z,71.80
2023-03-31T15:03:16.246Z,71.12
2023-03-31T15:05:50.359Z,72.51
2023-03-31T15:08:26.160Z,71.56
2023-03-31T15:11:11.868Z,72.59
2023-03-31T15:14:01.167Z,72.39
2023-03-31T15:16:42.330Z,71.99
2023-03-31T15:19:17.272Z,72.46
2023-03-31T15:21:57.041Z,72.65
2023-03-31T15:24:31.569Z,72.10
2023-03-31T15:27:09.161Z,71.66
2023-03-31T15:29:46.092Z,71.78
2023-03-31T15:32:26.101Z,72.13
2023-03-31T15:35:11.015Z,71.96
2023-03-31T15:37:48.384Z,72.28
2023-03-31T15:40:26.618Z,72.34
2023-03-31T15:43:07.047Z,72.28
2023-03-31T15:45:51.346Z,72.16
2023-03-31T15:48:29.442Z,72.46
2023-03-31T15:51:03.599Z,72.09
2023-03-31T15:53:38.683Z,71.86
2023-03-31T15:56:27.184Z,72.17
2023-03-31T15:59:02.882Z,72.49
2023-03-31T16:01:38.808Z,72.33
2023-03-31T16:04:15.504Z,71.78
2023-03-31T16:06:53.240Z,72.00
2023-03-31T16:09:31.314Z,72.07
2023-03-31T16:12:13.915Z,73.07
2023-03-31T16:14:51.406Z,72.29
2023-03-31T16:17:31.356Z,72.09
2023-03-31T16:20:08.989Z,71.98
2023-03-31T16:22:44.598Z,71.65
2023-03-31T16:25:20.108Z,71.93
2023-03-31T16:27:57.926Z,72.22
2023-03-31T16:30:38.948Z,72.20
2023-03-31T16:33:13.759Z,73.16
2023-03-31T16:35:50.980Z,72.30
2023-03-31T16:38:26.201Z,72.58
2023-03-31T16:41:00.432Z,72.31
2023-03-31T16:43:35.280Z,72.43
2023-03-31T16:46:08.016Z,72.21
2023-03-31T16:48:40.958Z,72.36
2023-03-31T16:51:14.065Z,72.92
2023-03-31T16:53:48.047Z,72.34
2023-03-31T16:56:21.034Z,72.45
2023-03-31T16:58:55.042Z,72.19
2023-03-31T17:01:27.827Z,72.20
2023-03-31T17:04:00.899Z,72.86
2023-03-31T17:06:34.064Z,73.68
2023-03-31T17:09:07.004Z,72.31
2023-03-31T17:11:39.505Z,72.70
2023-03-31T17:14:13.852Z,72.65
2023-03-31T17:16:48.535Z,72.27
2023-03-31T17:19:22.643Z,72.54
2023-03-31T17:21:55.510Z,72.22
2023-03-31T17:24:28.264Z,72.91
2023-03-31T17:27:01.531Z,72.98
2023-03-31T17:29:35.760Z,72.80
2023-03-31T17:32:09.900Z,72.79
2023-03-31T17:34:42.816Z,72.63
2023-03-31T17:37:15.465Z,72.69
2023-03-31T17:39:48.158Z,72.87
2023-03-31T17:42:20.991Z,72.48
2023-03-31T17:44:55.320Z,72.52
2023-03-31T17:47:28.185Z,72.85
2023-03-31T17:50:01.636Z,72.60
2023-03-31T17:52:34.372Z,73.05
2023-03-31T17:55:07.734Z,73.42
2023-03-31T17:57:40.667Z,72.62
2023-03-31T18:00:16.060Z,72.79
2023-03-31T18:02:48.756Z,72.90
2023-03-31T18:05:21.629Z,73.37
2023-03-31T18:07:54.461Z,72.74
2023-03-31T18:10:27.304Z,72.81
2023-03-31T18:13:00.253Z,72.53
2023-03-31T18:15:34.467Z,73.07
2023-03-31T18:18:07.403Z,73.41
2023-03-31T18:20:40.166Z,73.12
2023-03-31T18:23:13.062Z,73.31
2023-03-31T18:25:46.601Z,73.05
2023-03-31T18:28:20.738Z,73.32
2023-03-31T18:30:54.934Z,73.21
2023-03-31T18:33:28.096Z,73.89
2023-03-31T18:36:00.834Z,73.20
2023-03-31T18:38:33.682Z,73.33
2023-03-31T18:41:09.277Z,73.29
2023-03-31T18:43:42.259Z,73.55
2023-03-31T18:46:16.641Z,73.50
2023-03-31T18:48:49.377Z,73.27
2023-03-31T18:51:22.305Z,73.39
2023-03-31T18:53:55.178Z,73.29
2023-03-31T18:56:28.312Z,73.32
2023-03-31T18:59:03.925Z,73.91
2023-03-31T19:01:40.216Z,73.42
2023-03-31T19:04:13.009Z,73.52
2023-03-31T19:06:45.810Z,73.07
2023-03-31T19:09:19.358Z,73.59
2023-03-31T19:11:53.583Z,73.91
2023-03-31T19:14:26.278Z,73.18
2023-03-31T19:17:01.678Z,74.07
2023-03-31T19:19:35.323Z,73.42
2023-03-31T19:22:08.079Z,73.13
2023-03-31T19:24:40.956Z,74.14
2023-03-31T19:27:13.934Z,73.40
2023-03-31T19:29:46.812Z,73.99
2023-03-31T19:32:20.932Z,73.11
2023-03-31T19:34:54.516Z,73.20
2023-03-31T19:37:27.304Z,73.46
2023-03-31T19:39:59.920Z,73.37
2023-03-31T19:42:34.088Z,73.56
2023-03-31T19:45:07.599Z,73.58
2023-03-31T19:47:42.301Z,73.20
2023-03-31T19:50:15.056Z,73.03
2023-03-31T19:52:50.982Z,73.23
2023-03-31T19:55:23.942Z,73.02
2023-03-31T19:57:56.817Z,73.46
2023-03-31T20:00:30.988Z,73.22
2023-03-31T20:03:06.036Z,73.39
2023-03-31T20:05:39.394Z,73.87
2023-03-31T20:08:12.177Z,73.94
2023-03-31T20:10:44.986Z,73.57
2023-03-31T20:13:18.434Z,73.78
2023-03-31T20:15:59.712Z,73.62
2023-03-31T20:18:36.744Z,73.59
2023-03-31T20:21:12.965Z,73.54
2023-03-31T20:23:50.291Z,73.41
2023-03-31T20:26:25.374Z,73.29
2023-03-31T20:28:58.921Z,73.86
2023-03-31T20:31:33.929Z,74.23
2023-03-31T20:34:12.316Z,73.21
2023-03-31T20:36:49.057Z,73.30
2023-03-31T20:39:22.133Z,72.80
2023-03-31T20:41:55.211Z,73.48
2023-03-31T20:44:27.955Z,73.74
2023-03-31T20:47:01.732Z,73.83
2023-03-31T20:49:38.743Z,73.61
2023-03-31T20:52:14.167Z,73.95
2023-03-31T20:54:48.894Z,73.71
2023-03-31T20:57:25.870Z,74.18
2023-03-31T21:00:02.303Z,74.17
2023-03-31T21:02:35.352Z,73.86
2023-03-31T21:05:10.144Z,73.50
2023-03-31T21:07:45.468Z,73.63
2023-03-31T21:10:18.888Z,73.96
2023-03-31T21:12:51.789Z,73.80
2023-03-31T21:15:24.491Z,73.33
2023-03-31T21:17:57.286Z,74.33
2023-03-31T21:20:32.816Z,73.28
2023-03-31T21:23:06.901Z,73.36
2023-03-31T21:25:39.442Z,73.02
2023-03-31T21:28:12.435Z,73.86
2023-03-31T21:30:51.856Z,73.40
2023-03-31T21:33:25.993Z,73.66
2023-03-31T21:36:00.596Z,73.04
2023-03-31T21:38:36.114Z,72.78
2023-03-31T21:41:10.666Z,72.47
2023-03-31T21:43:44.236Z,72.62
2023-03-31T21:46:18.651Z,73.46
2023-03-31T21:48:51.712Z,72.82
2023-03-31T21:51:25.935Z,73.09
2023-03-31T21:53:59.086Z,72.24
2023-03-31T21:56:32.722Z,72.51
2023-03-31T21:59:06.018Z,73.28
2023-03-31T22:01:40.195Z,72.94
2023-03-31T22:04:13.236Z,72.56
2023-03-31T22:06:47.199Z,72.54
2023-03-31T22:09:20.419Z,72.62
2023-03-31T22:11:53.258Z,72.82
2023-03-31T22:14:26.082Z,73.15
2023-03-31T22:16:58.722Z,72.59
2023-03-31T22:19:31.943Z,73.87
2023-03-31T22:22:05.993Z,72.88
2023-03-31T22:24:38.943Z,73.27
2023-03-31T22:27:12.269Z,72.76
2023-03-31T22:29:45.330Z,73.31
2023-03-31T22:32:19.954Z,72.95
2023-03-31T22:34:52.890Z,73.03
2023-03-31T22:37:27.076Z,73.04
2023-03-31T22:39:59.864Z,73.51
2023-03-31T22:42:32.662Z,72.88
2023-03-31T22:45:08.706Z,72.89
2023-03-31T22:47:42.355Z,72.72
2023-03-31T22:50:15.572Z,72.95
2023-03-31T22:52:49.719Z,72.86
2023-03-31T22:55:22.919Z,72.99
2023-03-31T22:57:56.111Z,72.77
2023-03-31T23:00:28.959Z,73.23
2023-03-31T23:03:01.621Z,72.84
2023-03-31T23:05:35.953Z,72.86
2023-03-31T23:08:10.339Z,72.81
2023-03-31T23:10:43.320Z,72.69
2023-03-31T23:13:16.137Z,72.63
2023-03-31T23:15:48.919Z,73.60
2023-03-31T23:18:22.504Z,72.52
2023-03-31T23:20:56.142Z,73.28
2023-03-31T23:23:30.549Z,72.88
2023-03-31T23:26:03.934Z,72.75
2023-03-31T23:28:38.321Z,73.33
2023-03-31T23:31:11.084Z,72.79
2023-03-31T23:33:43.833Z,72.49
2023-03-31T23:36:18.293Z,72.27
2023-03-31T23:38:53.767Z,72.37
2023-03-31T23:41:27.072Z,72.41
2023-03-31T23:44:00.222Z,72.98
2023-03-31T23:46:33.663Z,72.83
2023-03-31T23:49:07.629Z,73.29
2023-03-31T23:51:40.264Z,72.70
2023-03-31T23:54:14.826Z,72.71
2023-03-31T23:56:47.634Z,72.40
2023-03-31T23:59:20.653Z,72.67
